Time;durP1;ratioP1;P1;durP2;ratioP2;P2;SDS_P1;SDS_P2;PMS_P1;PMS_P2;Temp;Humidity;BMP_temperature;BMP_pressure;BME280_temperature;BME280_humidity;BME280_pressure;Samples;Min_cycle;Max_cycle;Signal;HPM_P1;HPM_P2
2023/01/11 00:01:13;;;;;;;10.45;5.10;;;7.70;99.90;;;;;;5032564;28;20229;-80
2023/01/11 00:03:41;;;;;;;8.98;4.93;;;7.70;99.90;;;;;;5034982;28;20698;-78
2023/01/11 00:06:09;;;;;;;5.32;3.55;;;7.70;99.90;;;;;;5034274;28;20226;-79
2023/01/11 00:08:37;;;;;;;8.02;4.05;;;7.70;99.90;;;;;;5034464;28;20229;-79
2023/01/11 00:11:12;;;;;;;4.10;2.50;;;7.60;99.90;;;;;;5034208;28;20312;-79
2023/01/11 00:13:40;;;;;;;7.43;2.42;;;7.70;99.90;;;;;;5034849;28;20568;-79
2023/01/11 00:16:17;;;;;;;4.25;2.83;;;7.60;99.90;;;;;;5032109;28;20597;-78
2023/01/11 00:18:46;;;;;;;13.73;3.03;;;7.60;99.90;;;;;;5039527;28;20308;-80
2023/01/11 00:21:22;;;;;;;8.63;2.97;;;7.70;99.90;;;;;;5033958;28;20313;-81
2023/01/11 00:23:50;;;;;;;5.65;2.50;;;7.70;99.90;;;;;;5034645;28;20244;-80
2023/01/11 00:26:17;;;;;;;6.25;2.58;;;7.70;99.90;;;;;;5033595;28;20271;-80
2023/01/11 00:28:48;;;;;;;4.03;2.40;;;7.80;99.90;;;;;;5033828;28;20222;-80
2023/01/11 00:31:15;;;;;;;3.55;2.45;;;7.80;99.90;;;;;;5033782;28;20244;-79
2023/01/11 00:33:54;;;;;;;9.10;2.72;;;7.80;99.90;;;;;;5034581;28;20237;-79
2023/01/11 00:36:21;;;;;;;4.50;2.40;;;7.80;99.90;;;;;;5033483;28;20518;-78
2023/01/11 00:38:50;;;;;;;4.30;2.38;;;7.80;99.90;;;;;;5022553;28;20226;-80
2023/01/11 00:49:32;;;;;;;4.75;2.30;;;7.80;99.90;;;;;;5034085;28;20236;-78
2023/01/11 00:51:59;;;;;;;6.40;2.90;;;7.70;99.90;;;;;;5033520;28;20225;-78
2023/01/11 00:54:26;;;;;;;6.07;2.30;;;7.80;99.90;;;;;;5034476;28;20304;-80
2023/01/11 00:56:53;;;;;;;4.10;2.53;;;7.70;99.90;;;;;;5034821;28;20232;-78
2023/01/11 00:59:20;;;;;;;13.25;4.05;;;7.70;99.90;;;;;;5038682;28;20225;-78
2023/01/11 01:01:47;;;;;;;4.35;2.28;;;7.70;99.90;;;;;;5025564;28;20224;-79
2023/01/11 01:04:14;;;;;;;6.88;2.60;;;7.70;99.90;;;;;;5035204;28;20225;-78
2023/01/11 01:06:46;;;;;;;6.03;3.00;;;7.80;99.90;;;;;;5034827;28;20229;-79
2023/01/11 01:09:22;;;;;;;4.70;2.42;;;7.70;99.90;;;;;;5034685;28;20225;-79
2023/01/11 01:11:49;;;;;;;5.20;3.22;;;7.70;99.90;;;;;;5034200;28;20628;-80
2023/01/11 01:14:25;;;;;;;5.43;3.00;;;7.70;99.90;;;;;;5034186;28;20229;-79
2023/01/11 01:16:53;;;;;;;6.43;3.63;;;7.70;99.90;;;;;;5025852;28;20610;-81
2023/01/11 01:19:21;;;;;;;8.25;2.60;;;7.70;99.90;;;;;;5034042;28;20312;-80
2023/01/11 01:21:50;;;;;;;5.88;3.13;;;7.70;99.90;;;;;;5033138;28;20248;-80
2023/01/11 01:24:21;;;;;;;2.70;2.50;;;7.70;99.90;;;;;;5033680;28;20248;-79
2023/01/11 01:26:48;;;;;;;8.23;2.60;;;7.70;99.90;;;;;;5025238;28;20304;-80
2023/01/11 01:29:16;;;;;;;6.20;2.45;;;7.70;99.90;;;;;;5052969;28;20229;-80
2023/01/11 01:31:45;;;;;;;10.60;2.80;;;7.70;99.90;;;;;;5038390;28;20233;-78
2023/01/11 01:34:12;;;;;;;4.10;2.70;;;7.80;99.90;;;;;;5041804;28;20225;-79
2023/01/11 01:36:43;;;;;;;7.50;2.70;;;7.80;99.90;;;;;;5038438;28;20327;-79
2023/01/11 01:39:14;;;;;;;2.47;2.00;;;7.80;99.90;;;;;;5037483;28;20233;-79
2023/01/11 01:41:41;;;;;;;8.02;2.60;;;7.80;99.90;;;;;;5036749;28;20233;-81
2023/01/11 01:44:41;;;;;;;6.28;2.08;;;7.80;99.90;;;;;;5037020;28;20652;-81
2023/01/11 01:47:08;;;;;;;10.60;3.35;;;7.90;99.90;;;;;;5038815;28;20248;-80
2023/01/11 01:49:38;;;;;;;8.20;2.20;;;7.80;99.90;;;;;;5042021;28;20232;-79
2023/01/11 01:52:05;;;;;;;3.58;2.00;;;7.80;99.90;;;;;;5037802;28;20252;-79
2023/01/11 01:54:38;;;;;;;4.32;2.30;;;7.90;99.90;;;;;;5038965;28;20285;-79
2023/01/11 01:57:14;;;;;;;6.25;2.30;;;7.90;99.90;;;;;;5038396;28;20225;-80
2023/01/11 01:59:53;;;;;;;7.90;2.45;;;7.90;99.90;;;;;;5044523;28;20229;-80
2023/01/11 02:02:27;;;;;;;4.70;2.30;;;7.90;99.90;;;;;;5040825;28;20248;-80
2023/01/11 02:04:56;;;;;;;4.55;2.17;;;7.90;99.90;;;;;;5038893;28;20685;-78
2023/01/11 02:07:27;;;;;;;8.50;2.75;;;7.90;99.90;;;;;;5041529;28;20236;-79
2023/01/11 02:10:07;;;;;;;4.68;3.15;;;7.80;99.90;;;;;;5039343;28;20260;-78
2023/01/11 02:12:38;;;;;;;4.90;2.72;;;7.80;99.90;;;;;;5030310;28;20365;-79
2023/01/11 02:15:09;;;;;;;2.25;2.05;;;7.90;99.90;;;;;;5040051;28;20296;-79
2023/01/11 02:17:39;;;;;;;5.65;2.30;;;7.90;99.90;;;;;;5045284;28;20225;-79
2023/01/11 02:20:40;;;;;;;4.00;1.85;;;7.90;99.90;;;;;;5041841;28;20316;-80
2023/01/11 02:23:22;;;;;;;3.22;2.05;;;7.90;99.90;;;;;;5035294;28;20240;-81
2023/01/11 02:26:28;;;;;;;3.55;1.73;;;7.90;99.90;;;;;;5035141;28;20233;-79
2023/01/11 02:29:02;;;;;;;7.55;3.00;;;7.90;99.90;;;;;;5035877;28;20217;-79
2023/01/11 02:31:34;;;;;;;6.07;2.72;;;7.90;99.90;;;;;;5036194;28;20226;-78
2023/01/11 02:34:17;;;;;;;3.53;3.15;;;7.90;99.90;;;;;;5038563;28;20631;-80
2023/01/11 02:37:03;;;;;;;8.48;3.45;;;7.90;99.90;;;;;;5037517;28;20312;-80
2023/01/11 02:39:41;;;;;;;3.47;1.50;;;7.90;99.90;;;;;;5038057;28;20327;-79
2023/01/11 02:45:12;;;;;;;5.95;2.38;;;7.90;99.90;;;;;;5038648;28;20316;-80
2023/01/11 02:47:46;;;;;;;2.75;1.80;;;7.90;99.90;;;;;;5039645;28;20260;-79
2023/01/11 02:50:20;;;;;;;4.05;2.75;;;7.90;99.90;;;;;;5039271;28;20229;-80
2023/01/11 02:52:57;;;;;;;3.00;2.05;;;7.90;99.90;;;;;;5039090;28;20235;-78
2023/01/11 02:55:38;;;;;;;3.13;1.90;;;7.90;99.90;;;;;;5037038;28;20328;-78
2023/01/11 02:58:09;;;;;;;5.05;1.85;;;7.90;99.90;;;;;;5036051;28;20251;-79
2023/01/11 03:00:57;;;;;;;3.92;2.00;;;7.90;99.90;;;;;;5040276;28;20236;-79
2023/01/11 03:03:32;;;;;;;3.58;2.10;;;7.90;99.90;;;;;;5027062;28;20564;-79
2023/01/11 03:06:04;;;;;;;4.90;2.05;;;7.90;99.90;;;;;;5025352;28;20224;-78
2023/01/11 03:16:19;;;;;;;7.88;2.70;;;8.00;99.90;;;;;;5099995;28;20276;-79
2023/01/11 03:19:00;;;;;;;5.68;2.33;;;8.00;99.90;;;;;;5030703;28;20322;-79
2023/01/11 03:22:13;;;;;;;4.63;2.40;;;8.10;99.90;;;;;;5049056;28;20330;-78
2023/01/11 03:28:34;;;;;;;7.88;2.65;;;8.10;99.90;;;;;;5056744;28;20557;-78
2023/01/11 03:34:19;;;;;;;3.00;2.20;;;8.10;99.90;;;;;;5062439;28;20221;-78
2023/01/11 03:37:40;;;;;;;;;;;;;;;;;;;;;
2023/01/11 03:40:12;;;;;;;8.20;2.17;;;8.10;99.90;;;;;;5017752;28;20735;-79
2023/01/11 03:45:31;;;;;;;4.32;1.58;;;8.20;99.90;;;;;;5108852;28;20560;-79
2023/01/11 03:48:12;;;;;;;4.93;1.45;;;8.10;99.90;;;;;;5110425;28;20292;-78
2023/01/11 03:51:06;;;;;;;11.07;2.05;;;8.10;99.90;;;;;;5114493;28;20222;-78
2023/01/11 03:53:39;;;;;;;6.45;2.15;;;8.20;99.90;;;;;;5109391;28;20244;-78
2023/01/11 03:59:26;;;;;;;5.95;2.88;;;8.20;99.90;;;;;;5102476;28;20296;-78
2023/01/11 04:01:57;;;;;;;6.40;2.20;;;8.20;99.90;;;;;;5110207;28;20304;-78
2023/01/11 04:07:30;;;;;;;5.10;1.50;;;8.10;99.90;;;;;;5045198;28;20220;-79
2023/01/11 04:09:59;;;;;;;5.28;1.77;;;8.10;99.90;;;;;;5083227;28;20230;-79
2023/01/11 04:12:54;;;;;;;6.35;1.88;;;8.20;99.90;;;;;;5077763;28;20356;-78
2023/01/11 04:16:24;;;;;;;;;;;;;;;;;;;;;
2023/01/11 04:19:30;;;;;;;2.30;1.60;;;8.20;99.90;;;;;;5079164;28;20299;-78
2023/01/11 04:28:30;;;;;;;4.03;1.83;;;8.20;99.90;;;;;;5000320;28;20605;-78
2023/01/11 04:31:01;;;;;;;4.18;1.80;;;8.30;99.90;;;;;;5016415;28;20279;-78
2023/01/11 04:33:45;;;;;;;2.13;1.77;;;8.20;99.90;;;;;;5067825;28;20228;-78
2023/01/11 04:36:27;;;;;;;3.33;2.08;;;8.30;99.90;;;;;;5065159;28;20532;-79
2023/01/11 04:42:24;;;;;;;5.68;1.63;;;8.30;99.90;;;;;;5075335;28;20220;-79
2023/01/11 04:45:12;;;;;;;3.45;1.50;;;8.20;99.90;;;;;;5056439;28;20228;-79
2023/01/11 04:47:40;;;;;;;1.92;1.45;;;8.30;99.90;;;;;;5059538;28;20232;-79
2023/01/11 04:50:11;;;;;;;2.13;1.80;;;8.30;99.90;;;;;;5076783;28;20220;-79
2023/01/11 04:52:53;;;;;;;3.15;1.60;;;8.30;99.90;;;;;;5075924;28;20239;-79
2023/01/11 04:55:22;;;;;;;6.93;2.00;;;8.30;99.90;;;;;;5073109;28;20289;-79
2023/01/11 05:01:16;;;;;;;4.68;2.95;;;8.30;99.90;;;;;;5038527;28;20228;-78
2023/01/11 05:03:44;;;;;;;2.35;2.00;;;8.30;99.90;;;;;;5073260;28;20235;-78
2023/01/11 05:09:44;;;;;;;3.13;1.80;;;8.30;99.90;;;;;;5044490;28;20235;-78
2023/01/11 05:12:31;;;;;;;;;;;;;;;;;;;;;
2023/01/11 05:14:58;;;;;;;2.22;1.60;;;8.30;99.90;;;;;;5048386;28;20376;-78
2023/01/11 05:17:52;;;;;;;7.53;2.00;;;8.30;99.90;;;;;;5051171;28;20695;-78
2023/01/11 05:20:25;;;;;;;1.88;1.20;;;8.30;99.90;;;;;;5036317;28;20336;-79
2023/01/11 05:22:56;;;;;;;5.45;2.40;;;8.40;99.90;;;;;;5055622;28;20604;-79
2023/01/11 05:25:57;;;;;;;4.13;1.70;;;8.40;99.90;;;;;;5054925;28;20232;-78
2023/01/11 05:28:26;;;;;;;2.63;1.67;;;8.40;99.90;;;;;;5038446;28;20236;-78
2023/01/11 05:30:55;;;;;;;4.80;2.00;;;8.40;99.90;;;;;;5051557;28;20228;-78
2023/01/11 05:33:24;;;;;;;2.58;1.50;;;8.40;99.90;;;;;;5050808;28;20221;-78
2023/01/11 05:35:58;;;;;;;3.72;2.10;;;8.40;99.90;;;;;;5053772;28;20583;-78
2023/01/11 05:38:34;;;;;;;7.25;1.73;;;8.40;99.90;;;;;;5053743;28;20271;-78
2023/01/11 05:41:04;;;;;;;4.28;1.90;;;8.40;99.90;;;;;;5038828;28;20240;-78
2023/01/11 05:45:27;;;;;;;2.22;1.98;;;8.40;99.90;;;;;;5050558;28;20685;-78
2023/01/11 05:46:55;;;;;;;3.42;1.83;;;8.40;99.90;;;;;;5052823;28;20228;-79
2023/01/11 05:49:25;;;;;;;3.65;1.90;;;8.40;99.90;;;;;;5044201;28;20324;-78
2023/01/11 05:51:59;;;;;;;2.97;1.75;;;8.40;99.90;;;;;;5053521;28;20639;-78
2023/01/11 05:54:26;;;;;;;2.53;1.40;;;8.40;99.90;;;;;;5012513;28;20681;-78
2023/01/11 05:57:09;;;;;;;3.05;1.85;;;8.40;99.90;;;;;;5052561;28;20698;-78
2023/01/11 06:00:33;;;;;;;2.05;1.48;;;8.40;99.90;;;;;;5014704;28;20495;-78
2023/01/11 06:03:28;;;;;;;3.65;1.80;;;8.50;99.90;;;;;;5047892;28;20584;-78
2023/01/11 06:06:06;;;;;;;3.17;1.40;;;8.50;99.90;;;;;;5055392;28;20220;-78
2023/01/11 06:08:33;;;;;;;2.05;1.70;;;8.50;99.90;;;;;;5055481;28;20364;-78
2023/01/11 06:11:45;;;;;;;4.47;2.15;;;8.50;99.90;;;;;;5073183;28;20574;-78
2023/01/11 06:14:12;;;;;;;4.00;2.15;;;8.40;99.90;;;;;;5073007;28;20249;-77
2023/01/11 06:16:39;;;;;;;2.08;1.85;;;8.50;99.90;;;;;;5073250;28;20223;-79
2023/01/11 06:19:06;;;;;;;4.18;1.80;;;8.50;99.90;;;;;;5072856;28;20678;-79
2023/01/11 06:21:36;;;;;;;4.60;1.60;;;8.50;99.90;;;;;;5073050;28;20228;-77
2023/01/11 06:24:03;;;;;;;2.13;1.50;;;8.50;99.90;;;;;;5072488;28;20669;-77
2023/01/11 06:26:31;;;;;;;3.00;1.85;;;8.50;99.90;;;;;;5036092;28;20265;-79
2023/01/11 06:28:58;;;;;;;3.22;2.15;;;8.60;99.90;;;;;;5048190;28;20312;-78
2023/01/11 06:31:25;;;;;;;3.20;1.63;;;8.60;99.90;;;;;;5071195;28;20228;-77
2023/01/11 06:33:52;;;;;;;3.67;2.30;;;8.60;99.90;;;;;;5072865;28;20234;-80
2023/01/11 06:36:20;;;;;;;4.60;2.45;;;8.60;99.90;;;;;;5072686;28;20550;-78
2023/01/11 06:38:50;;;;;;;6.18;2.00;;;8.60;99.90;;;;;;5064580;28;20311;-78
2023/01/11 06:41:17;;;;;;;5.53;3.10;;;8.60;99.90;;;;;;5078724;28;20220;-79
2023/01/11 06:43:46;;;;;;;4.65;2.35;;;8.60;99.90;;;;;;5053113;28;20566;-80
2023/01/11 06:46:15;;;;;;;4.60;2.63;;;8.60;99.90;;;;;;5068232;28;20277;-79
2023/01/11 06:48:43;;;;;;;7.55;2.10;;;8.60;99.90;;;;;;5078745;28;20227;-78
2023/01/11 06:51:10;;;;;;;4.88;1.95;;;8.60;99.90;;;;;;5053947;28;20225;-79
2023/01/11 06:53:38;;;;;;;6.97;2.40;;;8.60;99.90;;;;;;5065545;28;20228;-79
2023/01/11 06:56:15;;;;;;;3.03;1.88;;;8.70;99.90;;;;;;5054697;28;20232;-78
2023/01/11 06:58:42;;;;;;;7.45;2.00;;;8.70;99.90;;;;;;5064109;28;20589;-79
2023/01/11 07:01:09;;;;;;;2.85;1.70;;;8.70;99.90;;;;;;5074069;28;20227;-79
2023/01/11 07:03:38;;;;;;;2.55;1.52;;;8.70;99.90;;;;;;5073965;28;20252;-78
2023/01/11 07:06:05;;;;;;;2.45;1.55;;;8.70;99.90;;;;;;5074451;28;20220;-78
2023/01/11 07:08:37;;;;;;;8.65;3.67;;;8.70;99.90;;;;;;5074719;28;20224;-80
2023/01/11 07:11:04;;;;;;;9.25;3.05;;;8.70;99.90;;;;;;5072916;28;20532;-78
2023/01/11 07:13:36;;;;;;;7.07;2.85;;;8.70;99.90;;;;;;5072345;28;20293;-80
2023/01/11 07:16:03;;;;;;;7.13;2.58;;;8.80;99.90;;;;;;5072659;28;20224;-80
2023/01/11 07:18:32;;;;;;;10.30;4.38;;;8.80;99.90;;;;;;5073084;28;20243;-79
2023/01/11 07:20:59;;;;;;;6.45;4.85;;;8.80;99.90;;;;;;5073328;28;20624;-78
2023/01/11 07:23:26;;;;;;;3.28;2.72;;;8.80;99.90;;;;;;5072672;28;20613;-78
2023/01/11 07:25:53;;;;;;;4.05;2.90;;;8.80;99.90;;;;;;5075774;28;20220;-78
2023/01/11 07:28:20;;;;;;;6.32;2.67;;;8.80;99.90;;;;;;5072955;28;20254;-79
2023/01/11 07:30:50;;;;;;;6.63;2.25;;;8.80;99.90;;;;;;5073233;28;20256;-77
2023/01/11 07:33:17;;;;;;;7.60;3.65;;;8.80;99.90;;;;;;5072864;28;20232;-77
2023/01/11 07:35:44;;;;;;;1.60;1.38;;;8.80;99.90;;;;;;5050538;28;20252;-78
2023/01/11 07:38:11;;;;;;;6.57;2.00;;;8.80;99.90;;;;;;5066809;28;20243;-78
2023/01/11 07:40:38;;;;;;;3.53;1.55;;;8.80;99.90;;;;;;5072693;28;20244;-79
2023/01/11 07:43:18;;;;;;;3.50;2.00;;;8.80;99.90;;;;;;5049565;28;20670;-79
2023/01/11 07:45:48;;;;;;;4.50;2.42;;;8.80;99.90;;;;;;5070680;28;20219;-80
2023/01/11 07:48:19;;;;;;;8.45;4.70;;;8.80;99.90;;;;;;5073255;28;20273;-79
2023/01/11 07:50:48;;;;;;;3.63;2.70;;;8.80;99.90;;;;;;5072337;28;20220;-80
2023/01/11 07:53:28;;;;;;;3.53;2.80;;;8.80;99.90;;;;;;5039438;28;20600;-79
2023/01/11 07:56:03;;;;;;;3.45;2.08;;;8.90;99.90;;;;;;5071239;28;20450;-80
2023/01/11 07:58:31;;;;;;;3.17;2.08;;;8.80;99.90;;;;;;5077113;28;20219;-80
2023/01/11 08:01:00;;;;;;;2.85;2.13;;;8.80;99.90;;;;;;5077501;28;20231;-80
2023/01/11 08:03:28;;;;;;;2.88;2.45;;;8.80;99.90;;;;;;5079277;28;20239;-78
2023/01/11 08:05:55;;;;;;;4.80;2.20;;;8.80;99.90;;;;;;5073533;28;20287;-79
2023/01/11 08:08:25;;;;;;;2.60;1.55;;;8.80;99.90;;;;;;5075813;28;20279;-79
2023/01/11 08:16:29;;;;;;;2.53;1.92;;;8.80;99.90;;;;;;5084006;28;20246;-77
2023/01/11 08:19:00;;;;;;;6.97;1.83;;;8.80;99.90;;;;;;5073546;28;20232;-79
2023/01/11 08:21:29;;;;;;;3.22;1.88;;;8.80;99.90;;;;;;5088039;28;20666;-79
2023/01/11 08:23:57;;;;;;;4.13;2.35;;;8.90;99.90;;;;;;5087797;28;20219;-79
2023/01/11 08:26:25;;;;;;;4.35;2.30;;;8.90;99.90;;;;;;5088490;28;20224;-80
2023/01/11 08:28:55;;;;;;;7.32;4.07;;;8.90;99.90;;;;;;5076950;28;20545;-79
2023/01/11 08:31:23;;;;;;;2.47;1.77;;;9.00;99.90;;;;;;5088685;28;20228;-79
2023/01/11 08:33:52;;;;;;;2.20;1.92;;;9.00;99.90;;;;;;5093462;28;20239;-79
2023/01/11 08:36:20;;;;;;;2.25;1.58;;;9.00;99.90;;;;;;5095455;28;20223;-78
2023/01/11 08:38:48;;;;;;;9.35;4.70;;;9.00;99.90;;;;;;5084510;28;20617;-80
2023/01/11 08:41:15;;;;;;;4.65;3.13;;;9.00;99.90;;;;;;5094151;28;20250;-79
2023/01/11 08:43:43;;;;;;;2.60;2.40;;;9.10;99.90;;;;;;5071603;28;20279;-78
2023/01/11 08:46:10;;;;;;;2.55;1.70;;;9.10;99.90;;;;;;5083763;28;20231;-81
2023/01/11 08:48:37;;;;;;;5.43;2.15;;;9.10;99.90;;;;;;5081075;28;20226;-79
2023/01/11 08:51:06;;;;;;;2.58;2.10;;;9.00;99.90;;;;;;5077955;28;20682;-79
2023/01/11 08:53:33;;;;;;;2.30;1.85;;;9.10;99.90;;;;;;5077079;28;20220;-79
2023/01/11 08:56:03;;;;;;;5.63;2.45;;;9.10;99.90;;;;;;5076901;28;20224;-78
2023/01/11 08:58:30;;;;;;;3.55;2.13;;;9.10;99.90;;;;;;5074176;28;20252;-79
2023/01/11 09:00:58;;;;;;;4.80;2.25;;;9.10;99.90;;;;;;5075912;28;20240;-79
2023/01/11 09:03:27;;;;;;;3.60;1.60;;;9.10;99.90;;;;;;5076006;28;20216;-80
2023/01/11 09:05:55;;;;;;;3.05;1.70;;;9.20;99.90;;;;;;5074913;28;20224;-80
2023/01/11 09:08:24;;;;;;;8.23;2.70;;;9.20;99.90;;;;;;5075377;28;20220;-79
2023/01/11 09:10:51;;;;;;;3.63;1.83;;;9.20;99.90;;;;;;5061386;28;20644;-77
2023/01/11 09:13:35;;;;;;;1.80;1.70;;;9.20;99.90;;;;;;5060507;28;20295;-77
2023/01/11 09:16:02;;;;;;;4.90;2.13;;;9.20;99.90;;;;;;5069408;28;20223;-80
2023/01/11 09:18:29;;;;;;;5.85;2.78;;;9.30;99.90;;;;;;5075734;28;20220;-79
2023/01/11 09:20:58;;;;;;;2.05;1.75;;;9.30;99.90;;;;;;5052503;28;20233;-79
2023/01/11 09:23:27;;;;;;;5.43;1.95;;;9.30;99.90;;;;;;5069169;28;20224;-79
2023/01/11 09:25:56;;;;;;;2.95;2.38;;;9.20;99.90;;;;;;5074547;28;20224;-77
2023/01/11 09:28:23;;;;;;;3.97;2.40;;;9.30;99.90;;;;;;5074620;28;20551;-79
2023/01/11 09:30:50;;;;;;;3.88;2.10;;;9.30;99.90;;;;;;5074290;28;20620;-79
2023/01/11 09:33:23;;;;;;;4.60;2.30;;;9.30;99.90;;;;;;5074393;28;20251;-79
2023/01/11 09:35:55;;;;;;;5.63;2.25;;;9.30;99.90;;;;;;5065481;28;20258;-78
2023/01/11 09:38:25;;;;;;;7.43;5.20;;;9.40;99.90;;;;;;5074383;28;20234;-78
2023/01/11 09:41:03;;;;;;;9.45;6.97;;;9.40;99.90;;;;;;5073766;28;20236;-78
2023/01/11 09:43:30;;;;;;;12.50;5.28;;;9.30;99.90;;;;;;5073470;28;20238;-78
2023/01/11 09:46:08;;;;;;;7.57;4.70;;;9.30;99.90;;;;;;5061072;28;20678;-79
2023/01/11 09:48:42;;;;;;;4.15;2.20;;;9.30;99.90;;;;;;5059116;28;20562;-78
2023/01/11 09:51:19;;;;;;;4.95;2.10;;;9.30;99.90;;;;;;5073108;28;20689;-78
2023/01/11 09:53:51;;;;;;;4.07;2.38;;;9.30;99.90;;;;;;5074015;28;20224;-79
2023/01/11 09:56:26;;;;;;;3.13;2.00;;;9.20;99.90;;;;;;5074907;28;20216;-80
2023/01/11 09:59:04;;;;;;;2.38;2.17;;;9.20;99.90;;;;;;5077774;28;20291;-80
2023/01/11 10:01:37;;;;;;;4.80;2.47;;;9.20;99.90;;;;;;5070303;28;20291;-79
2023/01/11 10:04:40;;;;;;;8.38;3.85;;;9.20;99.90;;;;;;5069270;28;20611;-79
2023/01/11 10:07:42;;;;;;;3.15;1.80;;;9.20;99.90;;;;;;4999818;28;20235;-78
2023/01/11 10:10:22;;;;;;;3.08;1.98;;;9.20;99.90;;;;;;5054850;28;20596;-80
2023/01/11 10:12:58;;;;;;;3.03;2.10;;;9.20;99.90;;;;;;5067829;28;20696;-90
2023/01/11 10:15:33;;;;;;;5.95;2.50;;;9.30;99.90;;;;;;5063068;28;20220;-81
2023/01/11 10:18:13;;;;;;;3.80;1.95;;;9.30;99.90;;;;;;5059049;28;20574;-76
2023/01/11 10:20:50;;;;;;;2.10;2.00;;;9.30;99.90;;;;;;5061610;28;20216;-77
2023/01/11 10:23:26;;;;;;;9.73;6.40;;;9.30;99.90;;;;;;5057075;28;20250;-78
2023/01/11 10:26:23;;;;;;;3.78;3.47;;;9.40;99.90;;;;;;5066929;28;20216;-79
2023/01/11 10:29:12;;;;;;;2.88;2.28;;;9.50;99.90;;;;;;5049277;28;20234;-81
2023/01/11 10:31:57;;;;;;;3.35;2.40;;;9.60;99.90;;;;;;5049062;28;20212;-80
2023/01/11 10:34:41;;;;;;;3.70;2.40;;;9.70;99.90;;;;;;5046848;28;20232;-77
2023/01/11 10:37:29;;;;;;;2.50;1.95;;;9.70;99.90;;;;;;5063553;28;20767;-81
2023/01/11 10:40:21;;;;;;;3.53;2.28;;;9.80;99.90;;;;;;5063979;28;20308;-78
2023/01/11 10:42:53;;;;;;;2.80;2.10;;;9.90;99.90;;;;;;5073334;28;20220;-81
2023/01/11 10:45:31;;;;;;;2.40;2.20;;;10.00;99.90;;;;;;5073313;28;20228;-79
2023/01/11 10:48:03;;;;;;;2.97;1.98;;;10.00;99.90;;;;;;5068902;28;20236;-78
2023/01/11 10:50:39;;;;;;;2.63;2.40;;;10.10;99.90;;;;;;5069654;28;20228;-80
2023/01/11 10:53:15;;;;;;;4.72;3.42;;;10.10;99.90;;;;;;5071001;28;20239;-77
2023/01/11 10:55:50;;;;;;;3.28;2.33;;;10.10;99.90;;;;;;5067680;28;20234;-78
2023/01/11 10:58:37;;;;;;;6.47;2.72;;;10.10;99.90;;;;;;5073901;28;20235;-77
2023/01/11 11:01:17;;;;;;;3.05;2.78;;;10.10;99.90;;;;;;5062793;28;20224;-77
2023/01/11 11:03:54;;;;;;;3.67;3.13;;;10.20;99.90;;;;;;5062099;28;20226;-78
2023/01/11 11:06:37;;;;;;;3.80;3.40;;;10.30;99.90;;;;;;5067650;28;20562;-80
2023/01/11 11:09:25;;;;;;;5.43;2.90;;;10.30;99.90;;;;;;5058437;28;20231;-79
2023/01/11 11:11:56;;;;;;;3.88;2.17;;;10.40;99.90;;;;;;5070570;28;20226;-79
2023/01/11 11:14:30;;;;;;;3.58;2.70;;;10.50;99.90;;;;;;5056667;28;20311;-79
2023/01/11 11:17:11;;;;;;;3.30;1.83;;;10.50;99.90;;;;;;5056860;28;20215;-78
2023/01/11 11:19:39;;;;;;;2.78;2.53;;;10.50;99.90;;;;;;5035482;28;20229;-79
2023/01/11 11:22:07;;;;;;;2.80;2.60;;;10.50;99.90;;;;;;5055946;28;20227;-77
2023/01/11 11:24:38;;;;;;;4.70;2.47;;;10.50;99.90;;;;;;5067051;28;20226;-78
2023/01/11 11:27:21;;;;;;;3.35;2.60;;;10.60;99.90;;;;;;5072539;28;20306;-83
2023/01/11 11:29:51;;;;;;;2.83;2.40;;;10.50;99.90;;;;;;5052365;28;20252;-81
2023/01/11 11:32:27;;;;;;;4.07;2.85;;;10.50;99.90;;;;;;5057809;28;20285;-78
2023/01/11 11:34:54;;;;;;;2.22;2.10;;;10.60;99.90;;;;;;5071452;28;20257;-79
2023/01/11 11:37:25;;;;;;;4.80;2.20;;;10.60;99.90;;;;;;5076380;28;20243;-79
2023/01/11 11:39:54;;;;;;;3.20;2.60;;;10.60;99.90;;;;;;5070701;28;20247;-80
2023/01/11 11:42:22;;;;;;;3.30;2.35;;;10.60;99.90;;;;;;5066281;28;20232;-81
2023/01/11 11:45:15;;;;;;;3.35;2.53;;;10.70;99.90;;;;;;5068870;28;20254;-82
2023/01/11 11:47:59;;;;;;;3.00;2.45;;;10.70;99.90;;;;;;5075695;28;20232;-81
2023/01/11 11:50:27;;;;;;;3.20;2.90;;;10.70;99.90;;;;;;5057547;22;20232;-82
2023/01/11 11:53:01;;;;;;;2.40;1.95;;;10.80;99.90;;;;;;5061415;28;20236;-80
2023/01/11 11:55:32;;;;;;;2.60;2.40;;;10.80;99.90;;;;;;5054940;28;20236;-79
2023/01/11 11:58:08;;;;;;;2.95;2.20;;;10.80;99.90;;;;;;5052756;28;20217;-80
2023/01/11 12:00:46;;;;;;;2.30;1.90;;;10.90;99.90;;;;;;5038497;28;20748;-78
2023/01/11 12:03:24;;;;;;;3.03;2.33;;;10.90;99.90;;;;;;5033191;28;20469;-79
2023/01/11 12:05:55;;;;;;;2.55;2.38;;;11.10;99.90;;;;;;5037326;28;20542;-78
2023/01/11 12:08:24;;;;;;;2.53;2.33;;;11.20;99.90;;;;;;5035199;28;20236;-78
2023/01/11 12:10:56;;;;;;;5.38;2.50;;;11.20;99.90;;;;;;5035442;28;20331;-79
2023/01/11 12:13:30;;;;;;;3.30;2.20;;;11.20;99.90;;;;;;5032792;28;20608;-79
2023/01/11 12:15:58;;;;;;;1.90;1.80;;;11.20;99.90;;;;;;5007797;28;20216;-79
2023/01/11 12:18:31;;;;;;;2.53;2.28;;;11.20;99.90;;;;;;5000497;28;20369;-77
2023/01/11 12:21:15;;;;;;;2.80;2.60;;;11.20;99.90;;;;;;5021501;28;20230;-79
2023/01/11 12:23:42;;;;;;;2.20;2.10;;;11.20;99.90;;;;;;5036888;28;20366;-77
2023/01/11 12:26:29;;;;;;;8.30;6.00;;;11.20;99.90;;;;;;5027303;28;20320;-77
2023/01/11 12:29:22;;;;;;;6.18;5.40;;;11.20;99.90;;;;;;5035617;28;20299;-78
2023/01/11 12:32:05;;;;;;;9.75;6.70;;;11.20;99.90;;;;;;5021378;28;20716;-78
2023/01/11 12:34:58;;;;;;;4.20;3.67;;;11.20;99.90;;;;;;5033870;28;20670;-78
2023/01/11 12:37:37;;;;;;;4.05;3.13;;;11.20;99.90;;;;;;5036105;28;20291;-79
2023/01/11 12:40:13;;;;;;;3.45;3.08;;;11.20;99.90;;;;;;5030648;28;20743;-79
2023/01/11 12:42:57;;;;;;;3.88;2.42;;;11.20;99.90;;;;;;5029827;28;20225;-79
2023/01/11 12:45:33;;;;;;;7.00;2.15;;;11.20;99.90;;;;;;5022846;28;20680;-79
2023/01/11 12:48:35;;;;;;;2.40;2.17;;;11.20;99.90;;;;;;5028618;28;20586;-80
2023/01/11 12:51:23;;;;;;;2.50;2.30;;;11.10;99.90;;;;;;5034853;28;20251;-79
2023/01/11 12:54:00;;;;;;;3.00;2.00;;;11.20;99.90;;;;;;5034772;28;20229;-79
2023/01/11 12:56:44;;;;;;;8.70;6.75;;;11.20;99.90;;;;;;5035369;28;20327;-79
2023/01/11 12:59:30;;;;;;;5.40;3.80;;;11.20;99.90;;;;;;5015418;28;20238;-77
2023/01/11 13:02:04;;;;;;;5.40;2.97;;;11.10;99.90;;;;;;5030795;28;20252;-78
2023/01/11 13:04:54;;;;;;;6.50;2.75;;;11.10;99.90;;;;;;5002641;28;20942;-75
2023/01/11 13:07:46;;;;;;;2.72;2.25;;;11.00;99.90;;;;;;4996901;28;20734;-77
2023/01/11 13:10:33;;;;;;;3.15;2.40;;;11.10;99.90;;;;;;5027421;28;20237;-77
2023/01/11 13:13:06;;;;;;;4.80;2.30;;;11.10;99.90;;;;;;5007472;28;20293;-78
2023/01/11 13:15:44;;;;;;;4.53;3.58;;;11.10;99.90;;;;;;5002952;28;20657;-79
2023/01/11 13:18:21;;;;;;;4.10;2.50;;;11.00;99.90;;;;;;5000415;28;20624;-80
2023/01/11 13:20:53;;;;;;;8.30;2.53;;;11.00;99.90;;;;;;5007136;28;20679;-76
2023/01/11 13:23:33;;;;;;;2.20;2.00;;;11.00;99.90;;;;;;5030867;28;20237;-80
2023/01/11 13:26:11;;;;;;;4.82;2.75;;;11.10;99.90;;;;;;5034932;28;20224;-77
2023/01/11 13:28:41;;;;;;;3.40;1.60;;;11.00;99.90;;;;;;5022417;28;20249;-79
2023/01/11 13:31:12;;;;;;;2.35;1.70;;;11.00;99.90;;;;;;5015196;28;20217;-78
2023/01/11 13:33:44;;;;;;;2.45;2.00;;;11.10;99.90;;;;;;5033607;28;20737;-78
2023/01/11 13:36:14;;;;;;;3.08;1.90;;;11.10;99.90;;;;;;5031021;28;20301;-79
2023/01/11 13:38:55;;;;;;;2.95;2.00;;;11.10;99.90;;;;;;5033052;28;20547;-79
2023/01/11 13:41:39;;;;;;;3.03;1.92;;;11.10;99.90;;;;;;5024656;28;20226;-79
2023/01/11 13:44:12;;;;;;;2.03;1.88;;;11.10;99.90;;;;;;5032225;28;20245;-80
2023/01/11 13:46:56;;;;;;;4.88;2.85;;;11.10;99.90;;;;;;5030776;28;20541;-80
2023/01/11 13:49:53;;;;;;;3.67;2.08;;;11.20;99.90;;;;;;5020542;28;20242;-79
2023/01/11 13:52:44;;;;;;;2.10;1.90;;;11.20;99.90;;;;;;4976651;28;20250;-80
2023/01/11 13:55:19;;;;;;;2.40;2.00;;;11.30;99.90;;;;;;4995637;28;20214;-80
2023/01/11 13:57:56;;;;;;;2.00;1.85;;;11.40;99.90;;;;;;4975334;28;20680;-80
2023/01/11 14:00:33;;;;;;;3.20;2.97;;;11.40;99.90;;;;;;4956981;28;20581;-79
2023/01/11 14:03:14;;;;;;;5.55;4.70;;;11.50;99.90;;;;;;5006264;28;20301;-79
2023/01/11 14:05:50;;;;;;;3.35;3.15;;;11.40;99.90;;;;;;4976888;28;20234;-80
2023/01/11 14:08:37;;;;;;;2.20;2.00;;;11.40;99.90;;;;;;5009210;28;20304;-79
2023/01/11 14:11:13;;;;;;;1.88;1.77;;;11.40;99.90;;;;;;5011858;28;20296;-79
2023/01/11 14:14:16;;;;;;;2.30;2.10;;;11.40;99.90;;;;;;4997901;28;20881;-79
2023/01/11 14:17:17;;;;;;;2.10;1.40;;;11.40;99.90;;;;;;4985262;28;20313;-77
2023/01/11 14:19:58;;;;;;;3.13;1.88;;;11.40;99.90;;;;;;5011005;28;20227;-78
2023/01/11 14:22:41;;;;;;;2.65;1.73;;;11.40;99.90;;;;;;5012484;28;20284;-79
2023/01/11 14:25:18;;;;;;;1.98;1.80;;;11.40;99.90;;;;;;5008429;28;20300;-78
2023/01/11 14:28:10;;;;;;;2.30;2.10;;;11.40;99.90;;;;;;5017382;28;20232;-78
2023/01/11 14:31:08;;;;;;;2.63;2.00;;;11.40;99.90;;;;;;5000638;28;20238;-79
2023/01/11 14:34:12;;;;;;;1.88;1.73;;;11.40;99.90;;;;;;5003978;28;20231;-79
2023/01/11 14:37:14;;;;;;;2.45;1.90;;;11.40;99.90;;;;;;5010876;28;20225;-79
2023/01/11 14:40:17;;;;;;;2.08;1.88;;;11.40;99.90;;;;;;5008072;28;20226;-80